Delaware City, DE current weather conditions

sailwx.info

Wind from 299 at 0 knots gusting 1

Air temperature 0.6° C
Water temperature 7.8° C

Last reported at 2019-Dec-08 01:30 UTC.
Time now 2019-Dec-08 03:05 UTC

Location: N 39°35' W 075°35'.
View on Google Maps.

See reports from other nearby stations

  
Tides and Currents Weather Stations Pressure Air Temp Water Temp Dewpoint Dewpoint Depression Visibility Wind Speed Wind Dir Waves Ship Positions
date/time (UTC)wind fromknots sea level pressurealtimeterstation pressurevisibilityair tempwater tempwave heightnotes
2019-Dec-08 01:30 299 0 gusting 1 0.6 7.8
2019-Dec-08 01:24 299 1 gusting 1 1.1 7.8
2019-Dec-08 01:18 299 1 gusting 2 1.1 7.8
2019-Dec-08 01:12 305 1 gusting 1 1.1 7.8
2019-Dec-08 01:06 310 2 gusting 2 1.1 7.8
2019-Dec-08 01:00 304 1 gusting 1 1.1 7.2
2019-Dec-08 00:54 306 1 gusting 2 1.1 7.2
2019-Dec-08 00:48 307 1 gusting 2 1.1 7.2
2019-Dec-08 00:42 309 2 gusting 2 1.1 7.8
2019-Dec-08 00:36 306 1 gusting 2 1.1 7.8
2019-Dec-08 00:30 306 1 gusting 2 1.1 7.8
2019-Dec-08 00:24 309 2 gusting 2 1.1 7.8
2019-Dec-08 00:18 302 1 gusting 2 1.7 7.8
2019-Dec-08 00:12 306 2 gusting 2 1.7 7.8
2019-Dec-08 00:06 304 1 gusting 2 1.7 7.8
2019-Dec-08 00:00 304 1 gusting 2 1.7 7.8
2019-Dec-07 23:54 302 1 gusting 2 2.2 7.8
2019-Dec-07 23:36 307 2 gusting 2 2.2 7.8
2019-Dec-07 23:30 307 1 gusting 2 2.2 7.8
2019-Dec-07 23:24 304 1 gusting 3 2.2 7.8
2019-Dec-07 23:18 308 2 gusting 3 2.2 7.8
2019-Dec-07 23:12 312 3 gusting 4 2.2 7.8
2019-Dec-07 23:06 313 2 gusting 3 2.2 7.8
2019-Dec-07 23:00 312 2 gusting 3 2.8 7.8
2019-Dec-07 22:54 306 2 gusting 3 2.8 7.8
2019-Dec-07 22:48 302 3 gusting 6 3.3 7.8
2019-Dec-07 22:42 320 5 gusting 6 3.9 7.8
2019-Dec-07 22:36 324 5 gusting 6 3.9 7.8
2019-Dec-07 22:30 329 5 gusting 6 3.9 7.8
2019-Dec-07 22:24 327 6 gusting 6 3.9 7.8
2019-Dec-07 22:18 328 6 gusting 7 4.4 7.8
2019-Dec-07 22:12 329 6 gusting 7 4.4 7.8
2019-Dec-07 22:06 329 6 gusting 8 4.4 7.8
2019-Dec-07 22:00 327 4 gusting 6 4.4 7.8
2019-Dec-07 21:54 326 6 gusting 7 4.4 7.8
2019-Dec-07 21:48 328 6 gusting 8 4.4 7.8
2019-Dec-07 21:42 330 7 gusting 9 4.4 7.8
2019-Dec-07 21:36 333 5 gusting 7 4.4 7.8
2019-Dec-07 21:30 328 6 gusting 9 4.4 7.8
2019-Dec-07 21:24 315 5 gusting 8 4.4 7.8
2019-Dec-07 21:18 326 6 gusting 7 4.4 7.8
2019-Dec-07 21:12 309 4 gusting 6 4.4 7.8
2019-Dec-07 21:06 298 6 gusting 10 4.4 7.8
2019-Dec-07 21:00 320 3 gusting 6 4.4 7.8
2019-Dec-07 20:54 301 6 gusting 8 4.4 8.3
2019-Dec-07 20:48 312 6 gusting 9 4.4 8.3
2019-Dec-07 20:42 308 6 gusting 8 4.4 8.3
2019-Dec-07 20:36 314 5 gusting 7 5.0 8.3
2019-Dec-07 20:30 312 6 gusting 7 5.0 8.3
2019-Dec-07 20:24 316 6 gusting 11 4.4 8.3
2019-Dec-07 20:18 318 8 gusting 11 4.4 8.3
2019-Dec-07 20:12 329 6 gusting 10 5.0 8.3
2019-Dec-07 20:06 329 6 gusting 10 5.0 8.3
2019-Dec-07 20:00 324 6 gusting 10 5.0 8.3
2019-Dec-07 19:54 325 5 gusting 8 5.0 8.3
2019-Dec-07 19:48 306 5 gusting 9 4.4 8.3
2019-Dec-07 19:42 332 3 gusting 6 4.4 8.3
2019-Dec-07 19:36 321 5 gusting 6 4.4 8.3
2019-Dec-07 19:30 325 6 gusting 9 4.4 8.3
2019-Dec-07 19:24 323 5 gusting 9 4.4 8.3
2019-Dec-07 19:18 322 6 gusting 10 4.4 8.3
2019-Dec-07 19:12 323 9 gusting 12 4.4 8.3
2019-Dec-07 19:06 335 6 gusting 8 4.4 8.3
2019-Dec-07 19:00 330 6 gusting 7 4.4 8.3
2019-Dec-07 18:54 330 6 gusting 10 4.4 8.3
2019-Dec-07 18:48 333 5 gusting 9 3.9 8.3
2019-Dec-07 18:42 315 6 gusting 8 3.9 8.3
2019-Dec-07 18:36 314 6 gusting 9 3.9 8.3
2019-Dec-07 18:30 320 6 gusting 11 3.9 8.3
2019-Dec-07 18:24 331 6 gusting 11 3.9 8.3
2019-Dec-07 18:18 314 5 gusting 9 4.4 8.3
2019-Dec-07 18:12 318 7 gusting 9 3.9 8.3
2019-Dec-07 18:06 314 7 gusting 11 3.9 8.3
2019-Dec-07 18:00 305 9 gusting 12 3.3 8.3
2019-Dec-07 17:54 323 6 gusting 12 3.9 8.3
2019-Dec-07 17:48 313 7 gusting 11 3.9 7.8
2019-Dec-07 17:42 331 6 gusting 8 3.9 7.8
2019-Dec-07 17:36 329 6 gusting 9 3.9 7.8
2019-Dec-07 17:30 330 7 gusting 9 3.3 7.8
2019-Dec-07 17:24 316 6 gusting 11 3.3 7.8
2019-Dec-07 17:18 324 7 gusting 12 3.3 7.8
2019-Dec-07 17:12 333 6 gusting 11 3.3 7.8
2019-Dec-07 17:06 315 8 gusting 10 3.3 7.8
2019-Dec-07 17:00 324 7 gusting 11 3.3 7.8
2019-Dec-07 16:54 323 6 gusting 10 3.9 7.8
2019-Dec-07 16:48 327 6 gusting 9 3.3 7.8
2019-Dec-07 16:42 325 7 gusting 9 3.3 7.8
2019-Dec-07 16:36 328 6 gusting 9 3.3 7.8
2019-Dec-07 16:30 327 6 gusting 10 3.9 7.8
2019-Dec-07 16:24 330 5 gusting 7 3.9 8.3
2019-Dec-07 16:18 354 3 gusting 6 3.9 8.3
2019-Dec-07 16:12 328 3 gusting 6 3.9 8.3
2019-Dec-07 16:06 330 3 gusting 7 3.3 7.8
2019-Dec-07 16:00 320 4 gusting 6 3.3 7.2
2019-Dec-07 15:54 321 3 gusting 5 3.3 7.2
2019-Dec-07 15:48 316 3 gusting 5 3.3 7.2
2019-Dec-07 15:42 336 3 gusting 6 3.3 7.2
2019-Dec-07 15:36 334 5 gusting 6 2.8 7.2
2019-Dec-07 15:30 327 4 gusting 5 2.8 7.2
2019-Dec-07 15:24 328 5 gusting 6 2.8 7.2
2019-Dec-07 15:18 332 3 gusting 6 2.8 7.2
2019-Dec-07 15:12 334 3 gusting 5 2.8 7.2
2019-Dec-07 15:06 327 3 gusting 5 2.8 7.2
2019-Dec-07 15:00 333 4 gusting 5 2.8 7.2
2019-Dec-07 14:54 341 4 gusting 6 2.8 7.2
2019-Dec-07 14:48 325 5 gusting 6 2.8 7.2
2019-Dec-07 14:42 324 4 gusting 6 2.8 7.2
2019-Dec-07 14:36 326 3 gusting 5 2.8 7.2
2019-Dec-07 14:30 328 3 gusting 5 2.8 7.2
2019-Dec-07 14:24 331 3 gusting 5 2.8 7.2
2019-Dec-07 14:18 325 3 gusting 5 2.8 7.2
2019-Dec-07 14:12 328 3 gusting 4 2.8 7.2
2019-Dec-07 14:06 306 3 gusting 4 2.2 7.2
2019-Dec-07 14:00 292 2 gusting 4 1.7 7.2
2019-Dec-07 13:54 288 3 gusting 5 1.7 7.2
2019-Dec-07 13:48 287 2 gusting 3 1.7 7.2
2019-Dec-07 13:42 284 2 gusting 3 1.7 7.2
2019-Dec-07 13:36 281 2 gusting 3 1.7 7.2
2019-Dec-07 13:30 279 2 gusting 3 1.7 7.2
2019-Dec-07 13:24 269 1 gusting 2 1.1 7.2
2019-Dec-07 13:18 269 1 gusting 2 1.1 7.2
2019-Dec-07 13:12 278 1 gusting 2 1.1 7.2
2019-Dec-07 13:06 280 1 gusting 2 1.1 7.2
2019-Dec-07 13:00 286 2 gusting 2 1.1 7.2
2019-Dec-07 12:54 294 2 gusting 3 1.1 7.2
2019-Dec-07 12:48 296 2 gusting 3 1.1 7.2
2019-Dec-07 12:42 299 2 gusting 3 1.1 7.2
2019-Dec-07 12:36 290 1 gusting 2 1.1 7.2
2019-Dec-07 12:30 288 2 gusting 3 0.6 7.2
2019-Dec-07 12:24 295 2 gusting 4 0.6 7.2
2019-Dec-07 12:18 299 3 gusting 4 0.6 7.2
2019-Dec-07 12:12 305 3 gusting 4 0.6 7.2
2019-Dec-07 12:06 307 3 gusting 4 0.6 7.2
2019-Dec-07 12:00 329 2 gusting 5 1.1 7.2
2019-Dec-07 11:54 344 5 gusting 6 2.2 7.2
2019-Dec-07 11:48 339 3 gusting 6 1.7 7.2
2019-Dec-07 11:42 348 5 gusting 6 2.2 7.2
2019-Dec-07 11:36 346 4 gusting 6 2.8 7.2
2019-Dec-07 11:30 351 4 gusting 6 2.8 7.2
2019-Dec-07 11:24 002 5 gusting 6 2.2 7.2
2019-Dec-07 11:18 352 5 gusting 6 2.2 7.2
2019-Dec-07 11:12 353 6 gusting 7 2.2 7.2
2019-Dec-07 11:06 345 5 gusting 7 2.8 7.2
2019-Dec-07 11:00 348 6 gusting 8 2.8 7.2
2019-Dec-07 10:54 358 6 gusting 9 2.8 7.2
2019-Dec-07 10:48 350 7 gusting 10 2.8 7.2
2019-Dec-07 10:42 358 6 gusting 11 2.8 7.2
2019-Dec-07 10:36 003 7 gusting 9 2.8 7.2
2019-Dec-07 10:30 355 7 gusting 9 2.8 7.2
2019-Dec-07 10:24 351 7 gusting 10 2.8 7.2
2019-Dec-07 10:18 353 7 gusting 10 2.8 7.2
2019-Dec-07 10:12 353 9 gusting 11 2.8 7.2
2019-Dec-07 10:06 353 6 gusting 11 2.8 7.2
2019-Dec-07 10:00 358 7 gusting 9 2.8 7.2
2019-Dec-07 09:54 356 6 gusting 8 2.8 7.2
2019-Dec-07 09:48 349 5 gusting 8 2.8 7.2
2019-Dec-07 09:42 002 7 gusting 10 2.8 7.2
2019-Dec-07 09:36 351 8 gusting 10 2.8 7.2
2019-Dec-07 09:30 352 9 gusting 11 2.8 7.2
2019-Dec-07 09:24 349 9 gusting 12 3.3 7.2
2019-Dec-07 09:18 359 9 gusting 12 3.3 7.2
2019-Dec-07 09:12 357 8 gusting 11 3.3 7.2
2019-Dec-07 09:06 003 9 gusting 13 3.3 7.2
2019-Dec-07 09:00 013 7 gusting 9 3.3 7.2
2019-Dec-07 08:54 006 7 gusting 10 3.3 7.2
2019-Dec-07 08:48 001 9 gusting 12 3.3 7.8
2019-Dec-07 08:42 347 6 gusting 9 3.3 7.8
2019-Dec-07 08:36 346 6 gusting 9 3.9 7.8
2019-Dec-07 08:30 359 7 gusting 10 3.9 7.8
2019-Dec-07 08:24 001 8 gusting 10 3.9 7.8
2019-Dec-07 08:18 001 8 gusting 11 3.9 7.8
2019-Dec-07 08:12 359 8 gusting 11 3.9 7.8
2019-Dec-07 08:06 358 9 gusting 12 4.4 7.8
2019-Dec-07 08:00 357 8 gusting 11 4.4 7.8
2019-Dec-07 07:54 341 6 gusting 10 4.4 7.8
2019-Dec-07 07:48 347 8 gusting 10 4.4 7.8
2019-Dec-07 07:42 352 7 gusting 9 4.4 7.8
2019-Dec-07 07:36 347 8 gusting 9 4.4 7.8
2019-Dec-07 07:30 342 8 gusting 12 4.4 7.8
2019-Dec-07 07:24 339 6 gusting 11 4.4 7.8
2019-Dec-07 07:18 337 7 gusting 12 4.4 7.8
2019-Dec-07 07:12 335 6 gusting 8 4.4 7.8
2019-Dec-07 07:06 335 7 gusting 11 4.4 7.8
2019-Dec-07 07:00 335 6 gusting 10 5.0 8.3
2019-Dec-07 06:54 337 6 gusting 10 5.0 8.3
2019-Dec-07 06:48 337 6 gusting 10 5.0 8.3
2019-Dec-07 06:42 343 8 gusting 9 5.0 8.3
2019-Dec-07 06:36 344 7 gusting 11 5.0 8.3
2019-Dec-07 06:30 343 6 gusting 10 5.0 7.8
2019-Dec-07 06:24 001 10 gusting 12 5.0 7.8
2019-Dec-07 06:18 354 7 gusting 10 5.6 7.8
2019-Dec-07 06:12 349 8 gusting 10 5.6 7.8
2019-Dec-07 06:06 352 8 gusting 11 5.6 7.8
2019-Dec-07 06:00 353 8 gusting 9 5.6 7.8
2019-Dec-07 05:54 001 9 gusting 11 5.6 7.8
2019-Dec-07 05:48 005 9 gusting 11 5.6 7.8
2019-Dec-07 05:42 004 7 gusting 10 5.6 7.8
2019-Dec-07 05:36 358 9 gusting 13 6.1 7.8
2019-Dec-07 05:30 358 11 gusting 13 6.1 7.8
2019-Dec-07 05:24 001 13 gusting 15 6.1 7.8
2019-Dec-07 05:18 001 11 gusting 13 6.1 7.8
2019-Dec-07 05:12 334 7 gusting 9 6.1 7.8
2019-Dec-07 05:06 332 7 gusting 11 6.1 7.8
2019-Dec-07 05:00 332 9 gusting 12 6.1 7.8
2019-Dec-07 04:54 333 9 gusting 12 6.7 7.8
2019-Dec-07 04:48 333 10 gusting 13 6.7 8.3
2019-Dec-07 04:42 333 9 gusting 12 6.7 8.3
2019-Dec-07 04:36 332 9 gusting 13 6.7 8.3
2019-Dec-07 04:30 336 9 gusting 12 6.7 8.3
2019-Dec-07 04:24 336 7 gusting 11 6.7 8.3
2019-Dec-07 04:18 338 8 gusting 12 7.2 7.8
2019-Dec-07 04:12 334 11 gusting 15 7.8 7.8
2019-Dec-07 04:06 329 13 gusting 18 7.8 7.8
2019-Dec-07 04:00 330 12 gusting 17 7.8 7.8
2019-Dec-07 03:54 333 12 gusting 17 7.8 7.8
2019-Dec-07 03:48 330 10 gusting 17 8.3 7.8
2019-Dec-07 03:42 325 11 gusting 19 8.3 7.8
2019-Dec-07 03:36 326 12 gusting 15 8.3 7.8
2019-Dec-07 03:30 329 13 gusting 17 8.3 7.8
2019-Dec-07 03:24 324 12 gusting 19 8.9 7.8
2019-Dec-07 03:18 328 14 gusting 18 8.9 7.8
2019-Dec-07 03:12 326 9 gusting 12 8.9 7.8
2019-Dec-07 03:06 327 11 gusting 13 8.9 7.8
2019-Dec-07 03:00 330 9 gusting 11 8.9 7.8
2019-Dec-07 02:54 329 10 gusting 13 8.9 7.8
2019-Dec-07 02:48 325 11 gusting 13 8.9 7.8
2019-Dec-07 02:42 324 9 gusting 12 9.4 7.8
2019-Dec-07 02:36 325 7 gusting 12 9.4 7.8
2019-Dec-07 02:30 329 10 gusting 12 9.4 7.8
2019-Dec-07 02:24 322 6 gusting 10 9.4 7.8
2019-Dec-07 02:18 328 8 gusting 10 9.4 7.8
2019-Dec-07 02:12 324 7 gusting 9 9.4 7.8
2019-Dec-07 02:06 327 8 gusting 12 9.4 7.8
2019-Dec-07 02:00 330 7 gusting 9 9.4 7.8
2019-Dec-07 01:54 331 7 gusting 8 9.4 7.8
2019-Dec-07 01:48 331 6 gusting 8 9.4 7.8
2019-Dec-07 01:36 300 5 gusting 9 10.0 7.8
2019-Dec-07 01:30 287 6 gusting 9 10.0 7.8
2019-Dec-07 01:24 288 4 gusting 7 10.0 7.8
2019-Dec-07 01:18 283 6 gusting 9 10.0 7.8
2019-Dec-07 01:12 279 3 gusting 7 10.0 7.8
2019-Dec-07 01:06 276 4 gusting 7 9.4 7.8
2019-Dec-07 01:00 276 3 gusting 6 9.4 7.8
2019-Dec-07 00:54 267 3 gusting 6 9.4 7.8
2019-Dec-07 00:48 263 4 gusting 7 9.4 7.8
2019-Dec-07 00:42 269 5 gusting 7 9.4 7.8
2019-Dec-07 00:36 263 3 gusting 6 9.4 7.8
2019-Dec-07 00:30 265 3 gusting 7 9.4 7.8
2019-Dec-07 00:24 263 3 gusting 6 9.4 7.8
2019-Dec-07 00:18 255 3 gusting 6 10.0 7.8
2019-Dec-07 00:12 266 3 gusting 6 9.4 7.8
2019-Dec-07 00:06 257 3 gusting 7 9.4 7.8
2019-Dec-07 00:00 250 3 gusting 10 10.0 7.8
2019-Dec-06 23:54 272 3 gusting 6 10.0 7.8
2019-Dec-06 23:42 263 4 gusting 7 10.0 7.8
2019-Dec-06 23:36 272 2 gusting 7 9.4 7.8
2019-Dec-06 23:30 283 4 gusting 8 10.0 7.8
2019-Dec-06 23:24 285 3 gusting 6 9.4 7.8
2019-Dec-06 23:18 262 5 gusting 7 9.4 7.8
2019-Dec-06 23:12 266 3 gusting 6 9.4 7.8
2019-Dec-06 23:06 261 3 gusting 6 9.4 7.8
2019-Dec-06 23:00 254 4 gusting 9 9.4 7.8
2019-Dec-06 22:54 249 4 gusting 8 9.4 7.8
2019-Dec-06 22:48 252 3 gusting 7 9.4 7.8
2019-Dec-06 22:42 228 5 gusting 7 9.4 7.8
2019-Dec-06 22:36 235 3 gusting 8 9.4 7.8
2019-Dec-06 22:30 208 2 gusting 5 9.4 7.8
2019-Dec-06 22:24 221 3 gusting 6 9.4 7.8
2019-Dec-06 22:18 212 3 gusting 8 9.4 7.8
2019-Dec-06 22:12 225 3 gusting 8 9.4 7.8
2019-Dec-06 22:06 226 3 gusting 7 8.9 7.8
2019-Dec-06 22:00 241 2 gusting 5 8.9 7.8
2019-Dec-06 21:54 241 4 gusting 6 9.4 7.8
2019-Dec-06 21:48 254 4 gusting 8 9.4 7.8
2019-Dec-06 21:42 273 4 gusting 7 10.0 7.8
2019-Dec-06 21:36 272 5 gusting 7 10.6 7.8
2019-Dec-06 21:30 270 3 gusting 6 10.6 7.8
2019-Dec-06 21:24 276 3 gusting 7 11.1 7.8
2019-Dec-06 21:18 264 4 gusting 7 11.1 7.8
2019-Dec-06 21:12 257 2 gusting 6 11.1 7.8
2019-Dec-06 21:06 240 5 gusting 8 11.1 7.8
2019-Dec-06 21:00 239 4 gusting 9 11.1 7.8
2019-Dec-06 20:54 233 3 gusting 8 11.1 7.8
2019-Dec-06 20:48 238 3 gusting 6 11.1 7.8
2019-Dec-06 20:42 235 3 gusting 7 11.1 7.8
2019-Dec-06 20:36 255 4 gusting 7 11.1 7.8
2019-Dec-06 20:30 251 3 gusting 7 11.1 7.8
2019-Dec-06 20:24 227 3 gusting 9 11.1 7.8
2019-Dec-06 20:18 245 3 gusting 10 11.1 7.8
2019-Dec-06 20:12 237 4 gusting 7 11.1 7.8
2019-Dec-06 20:06 223 5 gusting 11 11.1 7.8
2019-Dec-06 20:00 256 4 gusting 7 11.1 7.8
2019-Dec-06 19:54 230 4 gusting 9 11.1 7.8
2019-Dec-06 19:48 227 4 gusting 7 11.1 7.8
2019-Dec-06 19:42 232 5 gusting 8 11.1 7.8
2019-Dec-06 19:36 238 4 gusting 9 11.1 7.8
2019-Dec-06 19:30 222 2 gusting 8 11.1 7.8
2019-Dec-06 19:24 238 4 gusting 7 11.1 7.8
2019-Dec-06 19:18 217 4 gusting 7 11.1 7.8
2019-Dec-06 19:12 224 1 gusting 5 10.6 7.8
2019-Dec-06 19:06 232 3 gusting 6 10.6 7.8
2019-Dec-06 19:00 224 2 gusting 5 10.6 7.8
2019-Dec-06 18:54 202 3 gusting 5 10.6 7.8
2019-Dec-06 18:48 208 3 gusting 5 10.6 7.8
2019-Dec-06 18:42 221 3 gusting 4 10.0 7.8
2019-Dec-06 18:36 218 0 gusting 3 10.0 7.8
2019-Dec-06 18:30 243 2 gusting 5 10.0 7.8
2019-Dec-06 18:24 181 1 gusting 4 10.0 7.8
2019-Dec-06 18:18 196 3 gusting 6 9.4 7.8
2019-Dec-06 18:12 202 2 gusting 4 9.4 7.8
2019-Dec-06 18:06 211 2 gusting 6 9.4 7.8
2019-Dec-06 18:00 202 3 gusting 6 9.4 7.8
2019-Dec-06 17:54 213 1 gusting 6 9.4 7.8
2019-Dec-06 17:48 184 3 gusting 6 9.4 7.8
2019-Dec-06 17:42 177 4 gusting 6 8.9 7.8
2019-Dec-06 17:36 183 4 gusting 6 8.9 7.8
2019-Dec-06 17:30 179 3 gusting 6 8.9 7.8
2019-Dec-06 17:24 182 5 gusting 9 8.9 7.8
2019-Dec-06 17:18 190 6 gusting 10 8.9 7.8
2019-Dec-06 17:12 178 6 gusting 9 8.3 7.8
2019-Dec-06 17:06 186 6 gusting 11 8.3 7.8
2019-Dec-06 17:00 183 5 gusting 9 8.3 7.8
2019-Dec-06 16:54 181 6 gusting 8 8.3 7.8
2019-Dec-06 16:48 184 5 gusting 9 7.8 7.8
2019-Dec-06 16:42 194 5 gusting 9 7.8 7.8
2019-Dec-06 16:36 191 5 gusting 10 7.8 7.8
2019-Dec-06 16:30 203 5 gusting 10 7.8 7.8
2019-Dec-06 16:24 187 6 gusting 13 7.8 7.8
2019-Dec-06 16:18 190 7 gusting 13 7.2 7.8
2019-Dec-06 16:12 187 6 gusting 11 7.8 7.8
2019-Dec-06 16:06 185 7 gusting 12 7.2 7.8
2019-Dec-06 16:00 184 7 gusting 13 7.2 7.8
2019-Dec-06 15:54 186 9 gusting 12 7.2 7.8
2019-Dec-06 15:48 195 5 gusting 10 7.2 7.8
2019-Dec-06 15:42 184 6 gusting 9 7.2 7.8
2019-Dec-06 15:36 179 5 gusting 9 6.7 7.8
2019-Dec-06 15:30 190 5 gusting 8 6.7 7.8
2019-Dec-06 15:24 180 5 gusting 8 6.1 7.8
2019-Dec-06 15:18 174 5 gusting 8 5.6 7.8
2019-Dec-06 15:12 181 4 gusting 6 5.6 7.8
2019-Dec-06 15:06 178 4 gusting 7 5.6 7.8
2019-Dec-06 15:00 178 5 gusting 11 5.6 7.8
2019-Dec-06 14:54 177 6 gusting 8 5.0 7.8
2019-Dec-06 14:48 180 6 gusting 8 5.6 7.8
2019-Dec-06 14:42 184 6 gusting 7 5.0 7.8
2019-Dec-06 14:36 179 5 gusting 9 5.0 7.8
2019-Dec-06 14:30 180 8 gusting 11 5.0 7.8
2019-Dec-06 14:24 184 6 gusting 9 5.0 7.8
2019-Dec-06 14:18 180 4 gusting 6 5.0 7.8
2019-Dec-06 14:12 173 3 gusting 5 4.4 7.8
2019-Dec-06 14:06 181 3 gusting 6 4.4 7.8
2019-Dec-06 14:00 176 4 gusting 6 3.9 7.8
2019-Dec-06 13:54 182 4 gusting 6 3.9 7.8
2019-Dec-06 13:48 182 4 gusting 6 3.3 7.8
2019-Dec-06 13:42 179 4 gusting 6 3.3 7.8
2019-Dec-06 13:36 185 2 gusting 5 3.3 7.8
2019-Dec-06 13:30 188 3 gusting 6 3.3 7.8
2019-Dec-06 13:24 184 2 gusting 5 3.3 7.8
2019-Dec-06 13:18 203 1 gusting 4 2.8 7.8
2019-Dec-06 13:12 199 3 gusting 4 2.8 7.8
2019-Dec-06 13:06 198 1 gusting 4 2.8 7.8
2019-Dec-06 13:00 182 1 gusting 3 2.2 7.8
2019-Dec-06 12:54 194 1 gusting 3 2.2 7.8
2019-Dec-06 12:48 184 0 gusting 2 2.2 7.8
2019-Dec-06 12:42 216 0 gusting 3 2.2 7.8
2019-Dec-06 12:36 218 1 gusting 2 2.2 7.8
2019-Dec-06 12:30 216 0 gusting 3 1.7 7.8
2019-Dec-06 12:24 231 1 gusting 4 1.1 7.8
2019-Dec-06 12:18 222 2 gusting 3 1.1 7.8
2019-Dec-06 12:12 208 1 gusting 2 1.1 7.8
2019-Dec-06 12:06 231 1 gusting 1 1.1 7.8
2019-Dec-06 12:00 227 0 gusting 1 1.1 7.8
2019-Dec-06 11:54 239 1 gusting 1 1.1 7.8
2019-Dec-06 11:48 233 1 gusting 2 1.1 7.8
2019-Dec-06 11:42 230 1 gusting 2 1.1 7.8
2019-Dec-06 11:36 235 2 gusting 3 1.1 7.8
2019-Dec-06 11:30 234 2 gusting 4 1.1 7.8
2019-Dec-06 11:24 223 1 gusting 3 1.1 7.2
2019-Dec-06 11:18 222 1 gusting 3 1.1 7.8
2019-Dec-06 11:12 215 1 gusting 3 1.1 7.2
2019-Dec-06 11:06 222 1 gusting 3 1.1 7.2
2019-Dec-06 11:00 227 2 gusting 3 1.1 7.2
2019-Dec-06 10:54 234 1 gusting 3 1.1 7.2
2019-Dec-06 10:48 227 1 gusting 3 1.1 7.2
2019-Dec-06 10:42 228 1 gusting 3 1.1 7.2
2019-Dec-06 10:36 231 1 gusting 4 1.1 7.2
2019-Dec-06 10:30 234 3 gusting 4 1.1 7.2
2019-Dec-06 10:24 235 2 gusting 3 1.1 7.2
2019-Dec-06 10:18 227 2 gusting 3 1.1 7.2
2019-Dec-06 10:12 212 1 gusting 3 1.1 7.2
2019-Dec-06 10:06 223 2 gusting 3 1.1 7.2
2019-Dec-06 10:00 215 1 gusting 3 1.1 7.2
2019-Dec-06 09:54 212 1 gusting 3 1.1 7.2
2019-Dec-06 09:48 228 1 gusting 2 0.6 7.2
2019-Dec-06 09:42 224 1 gusting 2 0.6 7.2
2019-Dec-06 09:36 226 1 gusting 3 1.1 7.2
2019-Dec-06 09:30 215 2 gusting 3 1.1 7.2
2019-Dec-06 09:24 216 1 gusting 1 0.6 7.8
2019-Dec-06 09:18 239 0.6 7.8
2019-Dec-06 09:12 266 1.1 7.8
2019-Dec-06 09:06 274 1.1 7.8
2019-Dec-06 09:00 274 1.7 7.8
2019-Dec-06 08:54 285 0 gusting 0 1.7 7.8
2019-Dec-06 08:48 303 0 gusting 1 1.7 7.8
2019-Dec-06 08:42 273 0 gusting 0 1.7 7.8
2019-Dec-06 08:36 266 0 gusting 1 1.7 7.8
2019-Dec-06 08:30 265 0 gusting 1 2.2 7.8
2019-Dec-06 08:24 264 2.2 7.8
2019-Dec-06 08:18 257 0 gusting 1 2.2 7.8
2019-Dec-06 08:12 253 0 gusting 2 1.7 7.8
2019-Dec-06 08:06 255 1 gusting 2 2.2 7.8
2019-Dec-06 08:00 314 1 gusting 1 2.2 7.8
2019-Dec-06 07:54 257 0 gusting 1 2.2 7.8
2019-Dec-06 07:48 238 0 gusting 1 2.2 7.8
2019-Dec-06 07:42 243 1 gusting 2 2.2 7.8
2019-Dec-06 07:36 232 1 gusting 2 2.2 7.8
2019-Dec-06 07:30 256 1 gusting 3 2.2 7.8
2019-Dec-06 07:24 267 1 gusting 2 2.2 7.8
2019-Dec-06 07:18 249 1 gusting 3 2.2 7.8
2019-Dec-06 07:12 250 2 gusting 5 2.2 7.8
2019-Dec-06 07:06 253 2 gusting 5 2.2 7.8
2019-Dec-06 07:00 260 1 gusting 5 2.2 7.8
2019-Dec-06 06:54 241 3 gusting 5 2.2 7.8
2019-Dec-06 06:48 253 2 gusting 5 2.2 7.8
2019-Dec-06 06:42 265 2 gusting 5 2.2 7.8
2019-Dec-06 06:36 260 3 gusting 6 2.8 7.8
2019-Dec-06 06:30 262 3 gusting 5 2.2 7.8
2019-Dec-06 06:24 270 2 gusting 4 2.2 7.8
2019-Dec-06 06:18 257 2 gusting 5 2.2 7.8
2019-Dec-06 06:12 272 2 gusting 4 2.2 7.8
2019-Dec-06 06:06 300 1 gusting 3 2.2 7.8
2019-Dec-06 06:00 296 2 gusting 3 2.2 7.8
2019-Dec-06 05:54 279 2 gusting 4 2.8 7.8
2019-Dec-06 05:48 282 3 gusting 9 2.8 7.8
2019-Dec-06 05:42 270 4 gusting 6 2.8 7.8
2019-Dec-06 05:36 280 3 gusting 5 2.8 7.8
2019-Dec-06 05:30 264 3 gusting 5 2.8 7.8
2019-Dec-06 05:24 271 2 gusting 5 2.8 7.8
2019-Dec-06 05:18 267 2 gusting 3 2.8 7.8
2019-Dec-06 05:12 271 2 gusting 5 2.8 7.8
2019-Dec-06 05:06 272 2 gusting 5 2.8 7.8
2019-Dec-06 05:00 270 2 gusting 4 2.8 7.8
2019-Dec-06 04:54 258 3 gusting 4 2.8 7.8
2019-Dec-06 04:48 268 2 gusting 4 2.8 7.8
2019-Dec-06 04:42 263 3 gusting 6 2.8 7.8
2019-Dec-06 04:36 286 3 gusting 6 2.8 7.8
2019-Dec-06 04:30 282 3 gusting 6 2.8 7.8
2019-Dec-06 04:24 272 3 gusting 5 2.8 7.8
2019-Dec-06 04:18 273 2 gusting 5 2.8 7.8
2019-Dec-06 04:12 274 3 gusting 6 2.8 7.8
2019-Dec-06 04:06 289 3 gusting 6 2.8 7.8
2019-Dec-06 04:00 294 4 gusting 6 3.3 7.8
2019-Dec-06 03:54 278 4 gusting 6 3.3 7.8
2019-Dec-06 03:48 267 3 gusting 7 3.3 7.8
2019-Dec-06 03:42 263 3 gusting 5 3.3 7.8
2019-Dec-06 03:36 261 3 gusting 6 3.3 7.8
2019-Dec-06 03:30 289 4 gusting 7 3.3 7.8
2019-Dec-06 03:24 293 3 gusting 7 3.3 7.8
2019-Dec-06 03:18 282 3 gusting 6 3.3 7.8
2019-Dec-06 03:12 280 3 gusting 7 3.3 7.8
2019-Dec-06 03:06 291 3 gusting 6 3.3 7.8
2019-Dec-06 03:00 278 3 gusting 5 3.3 7.8